createdAt,value
2023-01-17T00:01:49.153Z,75.08
2023-01-17T00:04:34.114Z,75.17
2023-01-17T00:07:19.019Z,75.45
2023-01-17T00:09:54.540Z,75.25
2023-01-17T00:12:21.507Z,75.09
2023-01-17T00:14:48.653Z,75.00
2023-01-17T00:17:15.348Z,75.58
2023-01-17T00:20:00.236Z,75.40
2023-01-17T00:22:48.133Z,75.46
2023-01-17T00:25:38.759Z,75.54
2023-01-17T00:28:06.083Z,76.11
2023-01-17T00:30:33.162Z,75.76
2023-01-17T00:32:59.675Z,76.23
2023-01-17T00:35:28.476Z,76.80
2023-01-17T00:38:12.050Z,76.66
2023-01-17T00:40:40.741Z,76.73
2023-01-17T00:43:26.437Z,76.66
2023-01-17T00:46:12.027Z,77.27
2023-01-17T00:48:57.625Z,77.34
2023-01-17T00:51:43.685Z,77.73
2023-01-17T00:54:29.278Z,77.97
2023-01-17T00:57:14.724Z,78.46
2023-01-17T01:00:00.134Z,78.43
2023-01-17T01:02:45.557Z,78.53
2023-01-17T01:05:31.930Z,78.47
2023-01-17T01:08:17.804Z,78.55
2023-01-17T01:11:04.695Z,78.33
2023-01-17T01:13:51.112Z,78.46
2023-01-17T01:16:37.174Z,78.05
2023-01-17T01:19:22.752Z,77.96
2023-01-17T01:22:08.425Z,78.22
2023-01-17T01:24:53.197Z,78.35
2023-01-17T01:27:38.228Z,78.01
2023-01-17T01:30:23.621Z,77.83
2023-01-17T01:33:08.462Z,77.53
2023-01-17T01:35:36.779Z,77.49
2023-01-17T01:38:03.352Z,77.74
2023-01-17T01:40:30.052Z,77.46
2023-01-17T01:42:59.648Z,77.63
2023-01-17T01:45:28.852Z,77.33
2023-01-17T01:48:01.713Z,77.25
2023-01-17T01:50:30.537Z,77.17
2023-01-17T01:53:00.988Z,76.87
2023-01-17T01:55:32.018Z,77.18
2023-01-17T01:58:03.272Z,76.98
2023-01-17T02:00:35.216Z,76.84
2023-01-17T02:03:08.066Z,76.84
2023-01-17T02:09:21.905Z,76.75
2023-01-17T02:11:49.931Z,76.55
2023-01-17T02:14:17.707Z,76.45
2023-01-17T02:16:46.931Z,76.49
2023-01-17T02:19:50.589Z,76.81
2023-01-17T02:22:31.919Z,76.47
2023-01-17T02:25:35.607Z,76.83
2023-01-17T02:28:13.962Z,76.68
2023-01-17T02:30:45.938Z,76.33
2023-01-17T02:33:24.440Z,76.42
2023-01-17T02:36:16.825Z,76.23
2023-01-17T02:38:49.684Z,76.03
2023-01-17T02:41:23.685Z,75.83
2023-01-17T02:43:51.421Z,76.11
2023-01-17T02:46:18.063Z,75.86
2023-01-17T02:48:45.840Z,75.91
2023-01-17T02:51:38.918Z,75.71
2023-01-17T02:54:08.423Z,76.31
2023-01-17T02:57:01.627Z,76.18
2023-01-17T02:59:46.409Z,76.33
2023-01-17T03:02:22.154Z,76.60
2023-01-17T03:04:54.037Z,77.64
2023-01-17T03:07:25.843Z,77.98
2023-01-17T03:10:01.371Z,78.68
2023-01-17T03:12:34.473Z,79.03
2023-01-17T03:15:01.114Z,80.38
2023-01-17T03:17:32.361Z,81.24
2023-01-17T03:19:58.943Z,81.93
2023-01-17T03:22:25.427Z,82.63
2023-01-17T03:24:51.870Z,82.42
2023-01-17T03:27:18.271Z,82.54
2023-01-17T03:29:44.669Z,82.84
2023-01-17T03:32:11.101Z,83.03
2023-01-17T03:34:37.575Z,83.64
2023-01-17T03:37:03.988Z,83.99
2023-01-17T03:39:30.464Z,84.03
2023-01-17T03:41:56.862Z,84.35
2023-01-17T03:44:23.344Z,84.43
2023-01-17T03:46:49.943Z,84.25
2023-01-17T03:49:16.790Z,83.89
2023-01-17T03:51:43.321Z,84.29
2023-01-17T03:54:09.944Z,84.07
2023-01-17T03:56:36.381Z,83.95
2023-01-17T03:59:02.797Z,83.76
2023-01-17T04:01:29.400Z,83.72
2023-01-17T04:03:55.866Z,83.74
2023-01-17T04:06:22.332Z,84.13
2023-01-17T04:08:48.816Z,83.81
2023-01-17T04:11:15.600Z,83.54
2023-01-17T04:13:42.155Z,83.44
2023-01-17T04:16:13.893Z,83.54
2023-01-17T04:18:40.409Z,83.70
2023-01-17T04:21:08.063Z,83.97
2023-01-17T04:23:34.818Z,85.20
2023-01-17T04:26:03.643Z,85.61
2023-01-17T04:28:31.715Z,86.86
2023-01-17T04:30:59.790Z,87.15
2023-01-17T04:33:26.278Z,87.16
2023-01-17T04:35:53.662Z,87.42
2023-01-17T04:38:20.351Z,87.35
2023-01-17T04:40:46.875Z,87.43
2023-01-17T04:43:13.277Z,87.38
2023-01-17T04:45:39.816Z,87.01
2023-01-17T04:48:06.685Z,87.28
2023-01-17T04:50:33.377Z,87.67
2023-01-17T04:53:00.700Z,88.20
2023-01-17T04:55:27.557Z,88.73
2023-01-17T04:57:54.572Z,89.44
2023-01-17T05:00:24.084Z,89.72
2023-01-17T05:02:52.091Z,89.46
2023-01-17T05:05:18.583Z,89.99
2023-01-17T05:07:52.405Z,90.60
2023-01-17T05:10:18.926Z,90.20
2023-01-17T05:12:53.745Z,90.25
2023-01-17T05:15:20.313Z,90.85
2023-01-17T05:17:46.726Z,91.13
2023-01-17T05:20:13.211Z,90.99
2023-01-17T05:22:39.735Z,91.39
2023-01-17T05:25:06.685Z,91.71
2023-01-17T05:27:33.135Z,91.54
2023-01-17T05:29:59.565Z,91.30
2023-01-17T05:32:26.037Z,91.57
2023-01-17T05:34:52.489Z,91.07
2023-01-17T05:37:19.006Z,90.44
2023-01-17T05:39:45.503Z,89.73
2023-01-17T05:42:11.936Z,89.78
2023-01-17T05:44:38.661Z,89.46
2023-01-17T05:47:05.397Z,88.55
2023-01-17T05:49:31.965Z,87.84
2023-01-17T05:51:58.511Z,87.80
2023-01-17T05:54:25.154Z,87.74
2023-01-17T05:56:51.617Z,87.21
2023-01-17T05:59:25.577Z,87.84
2023-01-17T06:01:58.763Z,87.69
2023-01-17T06:04:25.258Z,87.95
2023-01-17T06:06:51.691Z,88.34
2023-01-17T06:09:18.162Z,88.23
2023-01-17T06:11:44.628Z,88.87
2023-01-17T06:14:11.130Z,88.92
2023-01-17T06:16:37.604Z,89.43
2023-01-17T06:19:04.108Z,89.61
2023-01-17T06:21:30.705Z,89.76
2023-01-17T06:23:57.133Z,89.44
2023-01-17T06:26:23.607Z,89.22
2023-01-17T06:28:50.070Z,89.34
2023-01-17T06:31:16.582Z,88.75
2023-01-17T06:33:43.098Z,89.09
2023-01-17T06:36:09.622Z,89.50
2023-01-17T06:38:36.132Z,89.10
2023-01-17T06:41:06.047Z,88.85
2023-01-17T06:43:33.741Z,89.16
2023-01-17T06:46:01.250Z,88.60
2023-01-17T06:48:28.061Z,88.48
2023-01-17T06:50:54.510Z,88.05
2023-01-17T06:53:20.980Z,87.80
2023-01-17T06:55:47.440Z,88.20
2023-01-17T06:58:13.994Z,87.74
2023-01-17T07:00:41.175Z,88.06
2023-01-17T07:03:17.756Z,87.66
2023-01-17T07:05:44.214Z,87.67
2023-01-17T07:08:10.741Z,87.55
2023-01-17T07:10:37.209Z,87.23
2023-01-17T07:13:03.819Z,87.35
2023-01-17T07:15:30.279Z,87.36
2023-01-17T07:17:56.827Z,87.62
2023-01-17T07:20:23.256Z,87.17
2023-01-17T07:22:49.735Z,87.07
2023-01-17T07:25:16.256Z,87.50
2023-01-17T07:27:42.711Z,87.56
2023-01-17T07:30:09.974Z,87.39
2023-01-17T07:32:37.219Z,87.16
2023-01-17T07:35:03.826Z,87.73
2023-01-17T07:37:30.303Z,87.84
2023-01-17T07:39:56.938Z,88.33
2023-01-17T07:42:24.359Z,88.00
2023-01-17T07:44:51.069Z,88.06
2023-01-17T07:47:17.720Z,88.49
2023-01-17T07:49:44.359Z,88.41
2023-01-17T07:52:10.958Z,88.72
2023-01-17T07:54:37.547Z,88.74
2023-01-17T07:57:04.096Z,88.56
2023-01-17T07:59:30.629Z,88.50
2023-01-17T08:01:58.897Z,88.76
2023-01-17T08:04:26.799Z,88.23
2023-01-17T08:06:56.305Z,88.17
2023-01-17T08:09:23.147Z,87.89
2023-01-17T08:11:49.690Z,87.27
2023-01-17T08:14:16.761Z,87.17
2023-01-17T08:16:43.237Z,86.32
2023-01-17T08:19:10.774Z,86.30
2023-01-17T08:21:37.550Z,86.13
2023-01-17T08:24:04.539Z,86.49
2023-01-17T08:26:31.280Z,85.87
2023-01-17T08:29:02.322Z,85.47
2023-01-17T08:31:31.589Z,85.19
2023-01-17T08:33:58.406Z,84.77
2023-01-17T08:36:25.898Z,84.87
2023-01-17T08:38:52.859Z,84.10
2023-01-17T08:41:24.096Z,83.72
2023-01-17T08:43:51.772Z,83.34
2023-01-17T08:46:18.929Z,83.32
2023-01-17T08:48:45.893Z,82.73
2023-01-17T08:51:12.867Z,82.12
2023-01-17T08:53:42.441Z,82.30
2023-01-17T08:56:09.578Z,82.30
2023-01-17T08:58:36.201Z,82.29
2023-01-17T09:01:04.856Z,81.52
2023-01-17T09:03:33.150Z,81.58
2023-01-17T09:06:26.226Z,81.41
2023-01-17T09:08:54.978Z,81.03
2023-01-17T09:11:25.125Z,80.40
2023-01-17T09:13:51.720Z,80.58
2023-01-17T09:16:18.304Z,79.95
2023-01-17T09:18:44.820Z,79.48
2023-01-17T09:21:18.660Z,78.64
2023-01-17T09:23:45.866Z,77.95
2023-01-17T09:26:27.346Z,77.17
2023-01-17T09:28:54.267Z,77.19
2023-01-17T09:31:21.883Z,76.84
2023-01-17T09:33:49.770Z,76.84
2023-01-17T09:36:16.801Z,76.45
2023-01-17T09:38:44.673Z,76.71
2023-01-17T09:41:27.812Z,76.88
2023-01-17T09:43:56.894Z,77.65
2023-01-17T09:46:28.819Z,77.47
2023-01-17T09:49:09.766Z,78.50
2023-01-17T09:51:36.906Z,78.80
2023-01-17T09:54:03.736Z,78.95
2023-01-17T09:56:45.892Z,78.66
2023-01-17T09:59:45.512Z,78.58
2023-01-17T10:02:39.596Z,78.02
2023-01-17T10:05:34.201Z,78.66
2023-01-17T10:08:28.287Z,78.55
2023-01-17T10:11:39.641Z,78.97
2023-01-17T10:14:50.817Z,78.95
2023-01-17T10:17:50.852Z,78.98
2023-01-17T10:20:47.907Z,78.56
2023-01-17T10:23:39.121Z,78.37
2023-01-17T10:26:11.646Z,78.86
2023-01-17T10:28:48.905Z,79.89
2023-01-17T10:31:21.848Z,80.90
2023-01-17T10:33:52.727Z,80.89
2023-01-17T10:36:20.863Z,80.57
2023-01-17T10:38:52.176Z,81.06
2023-01-17T10:41:32.019Z,79.88
2023-01-17T10:44:23.087Z,79.56
2023-01-17T10:46:54.866Z,80.18
2023-01-17T10:49:24.696Z,80.25
2023-01-17T10:52:04.038Z,80.20
2023-01-17T10:54:46.815Z,81.55
2023-01-17T10:57:18.964Z,82.55
2023-01-17T10:59:45.470Z,84.02
2023-01-17T11:02:29.006Z,85.07
2023-01-17T11:04:57.248Z,86.01
2023-01-17T11:07:29.305Z,86.47
2023-01-17T11:09:57.920Z,85.90
2023-01-17T11:12:40.884Z,86.01
2023-01-17T11:15:10.407Z,85.25
2023-01-17T11:17:53.277Z,84.54
2023-01-17T11:20:42.935Z,86.47
2023-01-17T11:23:21.174Z,88.61
2023-01-17T11:25:58.098Z,89.64
2023-01-17T11:28:30.770Z,90.06
2023-01-17T11:31:23.052Z,89.41
2023-01-17T11:34:05.325Z,89.93
2023-01-17T11:36:32.651Z,90.10
2023-01-17T11:39:17.478Z,89.89
2023-01-17T11:41:45.639Z,90.21
2023-01-17T11:44:27.567Z,91.49
2023-01-17T11:47:12.274Z,91.75
2023-01-17T11:49:44.557Z,91.02
2023-01-17T11:52:23.795Z,90.52
2023-01-17T11:54:52.826Z,90.30
2023-01-17T11:57:34.188Z,91.91
2023-01-17T12:00:22.127Z,92.82
2023-01-17T12:03:07.142Z,91.95
2023-01-17T12:05:53.710Z,91.02
2023-01-17T12:08:46.064Z,88.58
2023-01-17T12:11:37.994Z,83.43
2023-01-17T12:14:27.058Z,78.81
2023-01-17T12:17:11.580Z,77.00
2023-01-17T12:20:01.703Z,77.99
2023-01-17T12:22:35.222Z,79.10
2023-01-17T12:25:14.967Z,80.94
2023-01-17T12:27:53.109Z,78.33
2023-01-17T12:31:04.531Z,78.30
2023-01-17T12:33:57.604Z,76.15
2023-01-17T12:36:39.883Z,74.75
2023-01-17T12:39:10.369Z,71.79
2023-01-17T12:42:02.035Z,69.96
2023-01-17T12:44:57.968Z,65.29
2023-01-17T12:47:25.583Z,65.16
2023-01-17T12:50:07.024Z,67.21
2023-01-17T12:53:24.663Z,67.83
2023-01-17T12:55:55.556Z,69.36
2023-01-17T12:58:26.082Z,70.39
2023-01-17T13:01:07.573Z,70.89
2023-01-17T13:04:08.139Z,71.74
2023-01-17T13:06:59.879Z,71.76
2023-01-17T13:09:45.615Z,72.55
2023-01-17T13:12:21.362Z,72.20
2023-01-17T13:14:48.763Z,72.00
2023-01-17T13:17:45.178Z,71.86
2023-01-17T13:21:04.789Z,72.90
2023-01-17T13:23:56.344Z,72.77
2023-01-17T13:26:54.493Z,72.70
2023-01-17T13:29:52.443Z,71.78
2023-01-17T13:32:30.717Z,71.12
2023-01-17T13:35:06.223Z,71.17
2023-01-17T13:37:41.503Z,70.81
2023-01-17T13:40:20.631Z,71.41
2023-01-17T13:43:01.750Z,70.99
2023-01-17T13:45:31.798Z,70.90
2023-01-17T13:48:14.609Z,71.42
2023-01-17T13:50:41.037Z,71.35
2023-01-17T13:53:28.908Z,71.72
2023-01-17T13:56:13.321Z,71.45
2023-01-17T13:58:50.115Z,72.27
2023-01-17T14:01:22.830Z,72.33
2023-01-17T14:03:49.356Z,72.18
2023-01-17T14:06:33.897Z,72.50
2023-01-17T14:09:12.558Z,72.13
2023-01-17T14:11:51.686Z,72.49
2023-01-17T14:14:45.601Z,73.07
2023-01-17T14:17:25.800Z,72.95
2023-01-17T14:19:56.019Z,73.79
2023-01-17T14:22:29.414Z,73.18
2023-01-17T14:25:09.771Z,72.96
2023-01-17T14:28:04.270Z,73.22
2023-01-17T14:30:36.608Z,73.53
2023-01-17T14:33:03.159Z,73.09
2023-01-17T14:35:49.439Z,73.42
2023-01-17T14:38:20.582Z,73.80
2023-01-17T14:41:03.253Z,72.98
2023-01-17T14:43:32.965Z,73.29
2023-01-17T14:46:03.559Z,73.22
2023-01-17T14:48:30.149Z,73.52
2023-01-17T14:51:00.018Z,74.17
2023-01-17T14:53:30.522Z,74.64
2023-01-17T14:56:03.601Z,73.83
2023-01-17T14:58:33.327Z,73.63
2023-01-17T15:01:03.335Z,73.00
2023-01-17T15:03:35.397Z,72.93
2023-01-17T15:06:33.175Z,73.21
2023-01-17T15:09:01.009Z,73.38
2023-01-17T15:11:30.140Z,73.06
2023-01-17T15:13:59.175Z,72.70
2023-01-17T15:16:31.078Z,72.12
2023-01-17T15:18:57.913Z,71.89
2023-01-17T15:21:28.428Z,72.33
2023-01-17T15:24:03.852Z,72.33
2023-01-17T15:26:34.708Z,72.79
2023-01-17T15:29:08.103Z,72.86
2023-01-17T15:31:46.824Z,74.10
2023-01-17T15:34:20.999Z,75.33
2023-01-17T15:36:49.477Z,75.17
2023-01-17T15:39:25.006Z,76.81
2023-01-17T15:41:53.337Z,77.56
2023-01-17T15:44:47.657Z,77.35
2023-01-17T15:47:26.863Z,77.46
2023-01-17T15:49:53.429Z,76.39
2023-01-17T15:52:21.453Z,76.17
2023-01-17T15:54:54.487Z,76.11
2023-01-17T15:57:36.929Z,75.13
2023-01-17T16:00:09.626Z,74.70
2023-01-17T16:02:45.724Z,74.39
2023-01-17T16:05:33.831Z,74.12
2023-01-17T16:08:03.255Z,73.65
2023-01-17T16:10:37.805Z,73.69
2023-01-17T16:13:06.355Z,73.33
2023-01-17T16:15:35.202Z,73.31
2023-01-17T16:18:03.825Z,73.65
2023-01-17T16:20:36.834Z,73.69
2023-01-17T16:23:03.884Z,73.66
2023-01-17T16:25:32.678Z,74.17
2023-01-17T16:27:59.618Z,73.75
2023-01-17T16:30:26.672Z,73.03
2023-01-17T16:32:53.179Z,73.05
2023-01-17T16:35:21.154Z,73.72
2023-01-17T16:37:51.325Z,73.20
2023-01-17T16:40:22.878Z,73.51
2023-01-17T16:42:49.616Z,73.42
2023-01-17T16:45:16.877Z,74.03
2023-01-17T16:47:46.244Z,73.76
2023-01-17T16:50:15.585Z,74.03
2023-01-17T16:52:42.350Z,74.16
2023-01-17T16:55:12.790Z,74.47
2023-01-17T16:57:39.511Z,74.44
2023-01-17T17:00:07.193Z,74.03
2023-01-17T17:02:33.731Z,75.19
2023-01-17T17:05:00.415Z,74.77
2023-01-17T17:07:26.979Z,75.04
2023-01-17T17:09:53.405Z,74.96
2023-01-17T17:12:19.862Z,75.33
2023-01-17T17:14:46.330Z,75.34
2023-01-17T17:17:12.758Z,75.46
2023-01-17T17:19:39.395Z,75.55
2023-01-17T17:22:06.590Z,75.84
2023-01-17T17:24:33.531Z,75.62
2023-01-17T17:26:59.961Z,75.45
2023-01-17T17:29:26.525Z,76.33
2023-01-17T17:31:53.808Z,76.19
2023-01-17T17:34:20.916Z,76.41
2023-01-17T17:36:47.418Z,76.71
2023-01-17T17:39:17.302Z,76.79
2023-01-17T17:41:45.777Z,76.54
2023-01-17T17:44:13.649Z,76.48
2023-01-17T17:46:42.146Z,76.68
2023-01-17T17:49:09.360Z,76.95
2023-01-17T17:51:38.180Z,77.05
2023-01-17T17:54:10.287Z,76.92
2023-01-17T17:56:37.849Z,77.16
2023-01-17T17:59:06.863Z,77.12
2023-01-17T18:01:33.469Z,77.57
2023-01-17T18:04:04.465Z,77.45
2023-01-17T18:06:31.030Z,77.39
2023-01-17T18:08:57.477Z,77.21
2023-01-17T18:11:26.562Z,77.62
2023-01-17T18:13:55.467Z,77.77
2023-01-17T18:16:29.082Z,77.41
2023-01-17T18:18:57.523Z,76.56
2023-01-17T18:21:32.944Z,77.20
2023-01-17T18:24:02.110Z,77.53
2023-01-17T18:26:34.240Z,77.49
2023-01-17T18:29:02.855Z,78.23
2023-01-17T18:31:30.732Z,78.36
2023-01-17T18:33:59.363Z,78.80
2023-01-17T18:36:28.615Z,78.33
2023-01-17T18:38:55.459Z,78.06
2023-01-17T18:41:24.959Z,78.83
2023-01-17T18:43:52.182Z,78.80
2023-01-17T18:46:20.267Z,79.47
2023-01-17T18:48:46.757Z,79.38
2023-01-17T18:51:15.797Z,79.93
2023-01-17T18:53:43.788Z,79.62
2023-01-17T18:56:13.867Z,80.04
2023-01-17T18:58:45.019Z,80.19
2023-01-17T19:01:20.458Z,79.98
2023-01-17T19:03:49.465Z,81.00
2023-01-17T19:06:19.858Z,81.45
2023-01-17T19:08:46.480Z,81.74
2023-01-17T19:11:13.022Z,82.14
2023-01-17T19:13:40.573Z,81.56
2023-01-17T19:16:09.458Z,81.33
2023-01-17T19:18:35.963Z,80.95
2023-01-17T19:21:07.990Z,81.54
2023-01-17T19:23:35.788Z,81.58
2023-01-17T19:26:03.897Z,82.05
2023-01-17T19:28:30.571Z,81.57
2023-01-17T19:31:05.790Z,81.63
2023-01-17T19:33:35.108Z,81.84
2023-01-17T19:36:04.122Z,82.23
2023-01-17T19:38:30.743Z,81.60
2023-01-17T19:40:57.471Z,81.64
2023-01-17T19:43:23.932Z,81.63
2023-01-17T19:45:58.969Z,81.96
2023-01-17T19:48:26.611Z,82.06
2023-01-17T19:50:54.660Z,82.50
2023-01-17T19:53:22.252Z,82.34
2023-01-17T19:55:48.750Z,82.32
2023-01-17T19:58:15.386Z,82.77
2023-01-17T20:00:46.452Z,82.09
2023-01-17T20:03:13.268Z,82.05
2023-01-17T20:05:39.762Z,81.95
2023-01-17T20:08:06.445Z,82.65
2023-01-17T20:10:32.921Z,82.77
2023-01-17T20:12:59.332Z,82.59
2023-01-17T20:15:26.522Z,83.16
2023-01-17T20:17:53.249Z,83.25
2023-01-17T20:20:19.927Z,83.22
2023-01-17T20:22:46.417Z,84.04
2023-01-17T20:25:13.004Z,84.38
2023-01-17T20:27:40.626Z,84.25
2023-01-17T20:30:19.666Z,84.40
2023-01-17T20:32:46.945Z,84.40
2023-01-17T20:35:13.675Z,84.95
2023-01-17T20:37:40.099Z,84.84
2023-01-17T20:40:07.177Z,85.36
2023-01-17T20:42:36.115Z,84.92
2023-01-17T20:45:03.060Z,84.67
2023-01-17T20:47:29.693Z,84.02
2023-01-17T20:49:56.172Z,84.06
2023-01-17T20:52:22.822Z,84.58
2023-01-17T20:54:50.165Z,84.46
2023-01-17T20:57:16.733Z,84.10
2023-01-17T20:59:43.275Z,84.77
2023-01-17T21:02:10.765Z,85.54
2023-01-17T21:04:37.475Z,85.72
2023-01-17T21:07:03.950Z,85.93
2023-01-17T21:09:30.596Z,85.68
2023-01-17T21:12:01.142Z,86.05
2023-01-17T21:14:31.266Z,85.46
2023-01-17T21:16:57.915Z,85.59
2023-01-17T21:19:24.466Z,85.56
2023-01-17T21:21:51.149Z,86.04
2023-01-17T21:24:19.326Z,85.85
2023-01-17T21:26:46.682Z,85.25
2023-01-17T21:29:15.979Z,87.54
2023-01-17T21:31:42.683Z,87.53
2023-01-17T21:34:10.949Z,88.04
2023-01-17T21:36:39.749Z,88.29
2023-01-17T21:39:10.952Z,88.13
2023-01-17T21:41:41.827Z,88.73
2023-01-17T21:44:16.781Z,88.71
2023-01-17T21:46:43.328Z,89.49
2023-01-17T21:49:11.746Z,90.88
2023-01-17T21:51:54.860Z,91.08
2023-01-17T21:54:44.629Z,91.10
2023-01-17T21:57:41.513Z,91.84
2023-01-17T22:00:12.054Z,90.96
2023-01-17T22:02:39.683Z,92.45
2023-01-17T22:05:07.356Z,92.18
2023-01-17T22:07:34.038Z,92.21
2023-01-17T22:10:00.518Z,91.79
2023-01-17T22:12:28.092Z,92.33
2023-01-17T22:14:54.933Z,91.58
2023-01-17T22:17:21.463Z,91.91
2023-01-17T22:19:47.955Z,92.66
2023-01-17T22:22:14.422Z,92.56
2023-01-17T22:24:40.926Z,92.69
2023-01-17T22:27:10.429Z,92.37
2023-01-17T22:29:37.875Z,92.58
2023-01-17T22:32:04.695Z,92.36
2023-01-17T22:34:31.155Z,92.13
2023-01-17T22:36:57.615Z,92.10
2023-01-17T22:39:24.158Z,92.23
2023-01-17T22:41:50.621Z,92.12
2023-01-17T22:44:17.018Z,91.91
2023-01-17T22:46:43.680Z,92.16
2023-01-17T22:49:13.262Z,92.30
2023-01-17T22:51:39.891Z,92.11
2023-01-17T22:54:06.439Z,92.51
2023-01-17T22:56:33.414Z,92.69
2023-01-17T22:59:00.990Z,93.44
2023-01-17T23:01:32.586Z,93.41
2023-01-17T23:04:00.535Z,93.56
2023-01-17T23:06:32.147Z,94.06
2023-01-17T23:09:02.457Z,94.03
2023-01-17T23:11:47.303Z,94.20
2023-01-17T23:14:18.686Z,94.34
2023-01-17T23:17:08.255Z,94.26
2023-01-17T23:19:37.864Z,94.63
2023-01-17T23:22:16.094Z,94.04
2023-01-17T23:24:47.471Z,93.68
2023-01-17T23:27:34.430Z,93.24
2023-01-17T23:30:01.898Z,93.27
2023-01-17T23:32:28.636Z,92.73
2023-01-17T23:34:55.088Z,93.60
2023-01-17T23:37:21.699Z,93.35
2023-01-17T23:39:48.182Z,94.02
2023-01-17T23:42:33.943Z,95.74
2023-01-17T23:45:00.732Z,95.32
2023-01-17T23:47:27.167Z,95.49
2023-01-17T23:49:53.737Z,95.06
2023-01-17T23:52:20.177Z,95.37
2023-01-17T23:54:48.447Z,95.49
2023-01-17T23:57:14.900Z,95.75
2023-01-17T23:59:41.406Z,96.11
